Terminal Aerodrome Forecast
Issued by NWS

Current Version | Previous Version | Graphics & Text | Print | Product List | Glossary On
Versions: 1 2 3 4 5 6 7 8 9 10 11 12 13 14 15 16 17 18 19 20 21 22
000
FTUS41 KILN 240200 AAA
TAFLCK
TAF AMD
KLCK 240245Z 2403/2424 05008KT P6SM OVC035
      TEMPO 2403/2405 OVC015
     FM240500 05006KT P6SM OVC015
     FM241000 05008KT P6SM OVC025
     FM241300 06008KT P6SM BKN035=

USA.gov is the U.S. government's official web portal to all federal, state and local government web resources and services.